createdAt,value
2019-05-11T00:00:34.907Z,4.20
2019-05-11T00:03:04.168Z,4.11
2019-05-11T00:05:33.394Z,4.06
2019-05-11T00:08:02.579Z,4.03
2019-05-11T00:10:32.305Z,4.06
2019-05-11T00:13:04.266Z,4.00
2019-05-11T00:15:33.493Z,3.95
2019-05-11T00:18:15.401Z,3.95
2019-05-11T00:20:44.634Z,3.93
2019-05-11T00:23:14.538Z,3.87
2019-05-11T00:25:43.877Z,3.81
2019-05-11T00:28:13.179Z,3.79
2019-05-11T00:30:42.092Z,3.75
2019-05-11T00:33:25.293Z,3.79
2019-05-11T00:35:54.239Z,3.81
2019-05-11T00:38:23.129Z,3.80
2019-05-11T00:40:52.002Z,3.78
2019-05-11T00:43:21.199Z,3.75
2019-05-11T00:45:50.257Z,3.74
2019-05-11T00:48:19.495Z,3.73
2019-05-11T00:50:48.764Z,3.73
2019-05-11T00:54:17.172Z,3.71
2019-05-11T00:56:46.310Z,3.63
2019-05-11T00:59:21.867Z,3.55
2019-05-11T01:06:05.626Z,3.48
2019-05-11T01:08:32.275Z,3.36
2019-05-11T01:11:35.369Z,3.31
2019-05-11T01:14:04.516Z,3.34
2019-05-11T01:16:34.003Z,3.33
2019-05-11T01:19:28.432Z,3.38
2019-05-11T01:21:57.599Z,3.40
2019-05-11T01:24:26.651Z,3.39
2019-05-11T01:26:55.838Z,3.35
2019-05-11T01:29:25.302Z,3.28
2019-05-11T01:32:08.421Z,3.21
2019-05-11T01:34:34.929Z,3.20
2019-05-11T01:37:04.025Z,3.21
2019-05-11T01:39:33.732Z,3.14
2019-05-11T01:42:03.329Z,3.09
2019-05-11T01:44:32.676Z,3.05
2019-05-11T01:47:01.765Z,3.08
2019-05-11T01:49:31.045Z,3.13
2019-05-11T01:52:00.310Z,3.16
2019-05-11T01:54:29.307Z,3.12
2019-05-11T01:56:58.880Z,3.06
2019-05-11T01:59:27.904Z,2.99
2019-05-11T02:01:57.914Z,2.89
2019-05-11T02:04:27.563Z,2.82
2019-05-11T02:06:56.512Z,2.78
2019-05-11T02:09:25.724Z,2.73
2019-05-11T02:11:54.758Z,2.72
2019-05-11T02:14:23.891Z,2.76
2019-05-11T02:16:53.814Z,2.80
2019-05-11T02:19:23.308Z,2.75
2019-05-11T02:21:52.527Z,2.70
2019-05-11T02:24:21.786Z,2.63
2019-05-11T02:26:51.308Z,2.62
2019-05-11T02:29:20.660Z,2.68
2019-05-11T02:31:49.671Z,2.70
2019-05-11T02:34:18.713Z,2.69
2019-05-11T02:36:48.510Z,2.70
2019-05-11T02:39:25.640Z,2.71
2019-05-11T02:41:56.417Z,2.73
2019-05-11T02:44:49.582Z,2.67
2019-05-11T02:47:26.363Z,2.65
2019-05-11T02:49:57.756Z,2.65
2019-05-11T02:52:28.748Z,2.61
2019-05-11T02:55:00.290Z,2.49
2019-05-11T02:57:29.680Z,2.46
2019-05-11T02:59:58.938Z,2.47
2019-05-11T03:02:28.950Z,2.48
2019-05-11T03:04:58.257Z,2.47
2019-05-11T03:07:27.709Z,2.49
2019-05-11T03:09:56.994Z,2.43
2019-05-11T03:12:26.442Z,2.32
2019-05-11T03:14:55.731Z,2.32
2019-05-11T03:17:29.754Z,2.36
2019-05-11T03:19:59.022Z,2.30
2019-05-11T03:22:28.601Z,2.25
2019-05-11T03:24:57.572Z,2.23
2019-05-11T03:27:27.255Z,2.26
2019-05-11T03:30:00.870Z,2.27
2019-05-11T03:32:27.909Z,2.28
2019-05-11T03:34:57.412Z,2.33
2019-05-11T03:37:26.448Z,2.34
2019-05-11T03:39:55.531Z,2.35
2019-05-11T03:42:24.515Z,2.33
2019-05-11T03:44:54.771Z,2.25
2019-05-11T03:47:24.262Z,2.16
2019-05-11T03:49:53.493Z,2.11
2019-05-11T03:52:23.008Z,2.10
2019-05-11T03:54:52.529Z,2.13
2019-05-11T03:57:21.945Z,2.17
2019-05-11T03:59:50.975Z,2.19
2019-05-11T04:02:19.982Z,2.20
2019-05-11T04:04:48.903Z,2.18
2019-05-11T04:07:17.926Z,2.16
2019-05-11T04:09:46.896Z,2.20
2019-05-11T04:12:33.286Z,2.24
2019-05-11T04:14:48.933Z,2.30
2019-05-11T04:17:18.335Z,2.36
2019-05-11T04:19:47.439Z,2.38
2019-05-11T04:22:16.766Z,2.43
2019-05-11T04:24:46.048Z,2.45
2019-05-11T04:27:19.471Z,2.50
2019-05-11T04:29:46.450Z,2.56
2019-05-11T04:32:15.766Z,2.56
2019-05-11T04:34:44.783Z,2.57
2019-05-11T04:37:13.699Z,2.62
2019-05-11T04:39:42.628Z,2.67
2019-05-11T04:42:12.006Z,2.74
2019-05-11T04:44:41.244Z,2.78
2019-05-11T04:47:10.269Z,2.86
2019-05-11T04:49:39.738Z,2.94
2019-05-11T04:52:08.776Z,3.02
2019-05-11T04:54:37.644Z,3.10
2019-05-11T04:57:07.156Z,3.18
2019-05-11T04:59:36.355Z,3.25
2019-05-11T05:02:05.298Z,3.33
2019-05-11T05:04:34.378Z,3.44
2019-05-11T05:07:05.378Z,3.58
2019-05-11T05:09:42.948Z,3.72
2019-05-11T05:12:13.639Z,3.86
2019-05-11T05:14:39.558Z,4.05
2019-05-11T05:17:08.554Z,4.23
2019-05-11T05:19:37.727Z,4.40
2019-05-11T05:22:06.772Z,4.47
2019-05-11T05:24:36.039Z,4.47
2019-05-11T05:27:05.396Z,4.44
2019-05-11T05:29:34.640Z,4.45
2019-05-11T05:32:04.083Z,4.49
2019-05-11T05:34:33.080Z,4.53
2019-05-11T05:37:02.400Z,4.59
2019-05-11T05:39:31.705Z,4.62
2019-05-11T05:42:00.880Z,4.66
2019-05-11T05:44:29.965Z,4.66
2019-05-11T05:46:59.392Z,4.71
2019-05-11T05:49:28.423Z,4.72
2019-05-11T05:51:58.531Z,4.73
2019-05-11T05:54:27.804Z,4.74
2019-05-11T05:56:57.178Z,4.76
2019-05-11T05:59:26.375Z,4.78
2019-05-11T06:01:55.511Z,4.79
2019-05-11T06:04:25.037Z,4.86
2019-05-11T06:06:53.965Z,4.92
2019-05-11T06:09:23.205Z,5.02
2019-05-11T06:11:52.234Z,5.11
2019-05-11T06:14:21.802Z,5.25
2019-05-11T06:16:51.045Z,5.47
2019-05-11T06:19:20.020Z,5.72
2019-05-11T06:21:49.694Z,6.04
2019-05-11T06:24:19.159Z,6.46
2019-05-11T06:26:48.415Z,6.84
2019-05-11T06:29:21.296Z,7.18
2019-05-11T06:31:48.541Z,7.50
2019-05-11T06:34:18.130Z,7.81
2019-05-11T06:36:47.496Z,8.14
2019-05-11T06:39:16.424Z,8.41
2019-05-11T06:41:45.424Z,8.65
2019-05-11T06:44:14.538Z,8.95
2019-05-11T06:46:44.224Z,9.25
2019-05-11T06:49:13.192Z,9.41
2019-05-11T06:51:44.978Z,9.55
2019-05-11T06:56:43.412Z,9.51
2019-05-11T06:59:12.700Z,9.51
2019-05-11T07:58:58.273Z,10.11
2019-05-11T18:49:17.721Z,10.11
2019-05-11T18:51:52.209Z,10.11
2019-05-11T18:54:22.369Z,11.97
2019-05-11T18:56:51.862Z,11.90
2019-05-11T18:59:21.062Z,11.78
2019-05-11T19:01:50.357Z,11.72
2019-05-11T19:04:19.955Z,11.67
2019-05-11T19:06:49.033Z,11.57
2019-05-11T19:09:18.261Z,11.49
2019-05-11T19:11:48.894Z,11.41
2019-05-11T19:14:18.201Z,11.35
2019-05-11T19:16:49.123Z,11.28
2019-05-11T19:19:18.469Z,11.18
2019-05-11T19:21:48.326Z,11.14
2019-05-11T19:24:19.021Z,11.08
2019-05-11T19:26:51.247Z,11.01
2019-05-11T19:29:22.171Z,10.97
2019-05-11T19:31:51.830Z,10.91
2019-05-11T19:34:21.109Z,10.83
2019-05-11T19:36:50.390Z,10.77
2019-05-11T19:39:19.933Z,10.72
2019-05-11T19:41:49.632Z,10.68
2019-05-11T19:44:18.912Z,10.61
2019-05-11T20:09:08.927Z,10.53
2019-05-11T20:11:38.484Z,10.53
2019-05-11T20:14:08.109Z,9.85
2019-05-11T20:16:37.289Z,9.78
2019-05-11T20:19:08.620Z,9.72
2019-05-11T20:21:38.179Z,9.64
2019-05-11T20:24:08.533Z,9.60
2019-05-11T20:26:37.975Z,9.53
2019-05-11T20:29:30.221Z,9.48
2019-05-11T20:31:59.587Z,9.39
2019-05-11T20:34:28.959Z,9.36
2019-05-11T20:36:58.767Z,9.29
2019-05-11T20:40:37.806Z,9.21
2019-05-11T20:47:28.731Z,9.18
2019-05-11T20:48:38.230Z,9.13
2019-05-11T20:50:43.749Z,9.01
2019-05-11T21:32:59.196Z,8.97
2019-05-11T21:39:18.528Z,7.98
2019-05-11T21:41:53.637Z,7.97
2019-05-11T21:44:23.082Z,7.95
2019-05-11T21:46:52.737Z,7.89
2019-05-11T21:49:21.687Z,7.86
2019-05-11T21:52:03.670Z,7.83
2019-05-11T21:54:21.839Z,7.76
2019-05-11T21:56:51.107Z,7.74
2019-05-11T21:59:20.545Z,7.73
2019-05-11T22:01:49.755Z,7.71
2019-05-11T22:04:19.329Z,7.70
2019-05-11T22:06:48.458Z,7.68
2019-05-11T22:09:18.535Z,7.64
2019-05-11T22:11:48.671Z,7.61
2019-05-11T22:14:17.917Z,7.57
2019-05-11T22:16:48.012Z,7.48
2019-05-11T22:19:17.862Z,7.41
2019-05-11T22:21:49.448Z,7.36
2019-05-11T22:24:18.394Z,7.35
2019-05-11T22:26:47.802Z,7.33
2019-05-11T22:29:18.137Z,7.34
2019-05-11T22:31:48.672Z,7.30
2019-05-11T22:34:18.416Z,7.25
2019-05-11T22:36:48.004Z,7.19
2019-05-11T22:39:20.556Z,7.12
2019-05-11T22:41:48.250Z,7.10
2019-05-11T22:44:18.619Z,7.04
2019-05-11T22:46:48.186Z,7.03
2019-05-11T22:49:17.797Z,7.03
2019-05-11T22:51:50.164Z,6.94
2019-05-11T22:54:44.035Z,6.88
2019-05-11T22:57:32.901Z,6.84
2019-05-11T23:00:12.474Z,6.81
2019-05-11T23:02:41.523Z,6.84
2019-05-11T23:05:10.904Z,6.81
2019-05-11T23:07:41.867Z,6.80
2019-05-11T23:10:11.345Z,6.67
2019-05-11T23:12:42.616Z,6.77
2019-05-11T23:15:14.975Z,6.77
2019-05-11T23:17:44.080Z,6.77
2019-05-11T23:20:13.427Z,6.67
2019-05-11T23:22:56.652Z,6.63
2019-05-11T23:25:19.712Z,6.54
2019-05-11T23:27:49.118Z,6.50
2019-05-11T23:30:20.105Z,6.42
2019-05-11T23:32:50.206Z,6.41
2019-05-11T23:35:19.430Z,6.39
2019-05-11T23:38:12.299Z,6.38
2019-05-11T23:40:41.557Z,6.37
2019-05-11T23:43:10.689Z,6.33
2019-05-11T23:45:39.750Z,6.28
2019-05-11T23:48:08.904Z,6.26
2019-05-11T23:50:38.740Z,6.25
2019-05-11T23:53:10.305Z,6.28
2019-05-11T23:55:39.337Z,6.25
2019-05-11T23:58:08.471Z,6.23
